Ronald Reagan Washington National Airport
KDCA : now visible

Airfield :











YOU CAN JOIN US ON...

 
LOGIN :

Register | Disclaimer

   EN    FR    IT 

 









Legend :    VFR   Marginal VFR   IFR   Intensive IFR   Very Intensive IFR
Visi :
Ceiling :
>= 8 km
>= 3000ft
5 to 8 km
1000 to 3000 ft
1500m to 5 km
500 to 1000 ft
800 to 1500m
200 to 500 ft
< 800m
< 200 ft
Symbols :   Thunderstorms  Fog  Heavy snow  Heavy precipitations  Wind > 20 kt







- Airport Elevation : 15 ft
- IATA code : DCA


KDCA - Ronald Reagan Washington National

CURRENT METAR :
  • 210552Z 35010KT 10SM CLR 21/11 A2989 RMK AO2 SLP122 T02110111 10289 20211 53012

EXPIRED METARs :
  • 210452Z 34016KT 10SM FEW250 23/11 A2988 RMK AO2 SLP118 T02280111 403220228
  • 210352Z 32016G23KT 10SM SCT250 25/11 A2987 RMK AO2 PK WND 32029/0317 SLP113 T02500106

TAF KDCA
Valid from the 21 at 06:00 until the 22 at 12:00 UTC


210540Z 2106/2212 33012KT P6SM SKC
FM211200 34013G19KT P6SM FEW150
FM220000 35007KT P6SM FEW120
FM220500 01004KT P6SM FEW110
KZDC FIR / North America



MET'MAP, your aeronautical weather chart ! - Copyright ORBIFLY December 2007 - Disclaimer

ORBIFLY MET'MAP TEAM :

Programming & Development : Alexandra Zaïnal
Concept & Development : Baudouin d'Aumeries
Co-Development & Prog : Marc-Olivier Méhu
Technical & hardware support : Manuel Goepfert

Contact : metmap@orbifly.com




SOURCES & CREDITS :

   NOAA       Earth
Advisory